sensor_id;sensor_type;location;lat;lon;timestamp;P1;durP1;ratioP1;P2;durP2;ratioP2
11151;SDS011;5630;49.342;10.802;2023-03-01T00:01:06;20.77;;;15.37;;
11151;SDS011;5630;49.342;10.802;2023-03-01T00:03:34;28.00;;;16.65;;
11151;SDS011;5630;49.342;10.802;2023-03-01T00:06:00;23.05;;;17.23;;
11151;SDS011;5630;49.342;10.802;2023-03-01T00:08:27;25.25;;;17.63;;
11151;SDS011;5630;49.342;10.802;2023-03-01T00:11:06;23.13;;;16.90;;
11151;SDS011;5630;49.342;10.802;2023-03-01T00:13:34;25.50;;;17.80;;
11151;SDS011;5630;49.342;10.802;2023-03-01T00:16:02;23.75;;;16.90;;
11151;SDS011;5630;49.342;10.802;2023-03-01T00:18:32;22.90;;;17.38;;
11151;SDS011;5630;49.342;10.802;2023-03-01T00:20:58;22.43;;;16.70;;
11151;SDS011;5630;49.342;10.802;2023-03-01T00:23:24;25.00;;;17.42;;
11151;SDS011;5630;49.342;10.802;2023-03-01T00:25:50;22.35;;;17.40;;
11151;SDS011;5630;49.342;10.802;2023-03-01T00:28:16;22.80;;;18.00;;
11151;SDS011;5630;49.342;10.802;2023-03-01T00:30:42;22.90;;;17.60;;
11151;SDS011;5630;49.342;10.802;2023-03-01T00:33:07;26.70;;;17.97;;
11151;SDS011;5630;49.342;10.802;2023-03-01T00:35:33;22.03;;;18.07;;
11151;SDS011;5630;49.342;10.802;2023-03-01T00:37:59;22.35;;;18.13;;
11151;SDS011;5630;49.342;10.802;2023-03-01T00:40:29;24.55;;;17.50;;
11151;SDS011;5630;49.342;10.802;2023-03-01T00:42:56;20.60;;;16.98;;
11151;SDS011;5630;49.342;10.802;2023-03-01T00:45:22;21.40;;;16.87;;
11151;SDS011;5630;49.342;10.802;2023-03-01T00:47:49;21.85;;;16.67;;
11151;SDS011;5630;49.342;10.802;2023-03-01T00:50:15;21.95;;;16.38;;
11151;SDS011;5630;49.342;10.802;2023-03-01T00:52:41;22.27;;;16.73;;
11151;SDS011;5630;49.342;10.802;2023-03-01T00:55:06;21.77;;;17.13;;
11151;SDS011;5630;49.342;10.802;2023-03-01T00:57:32;20.90;;;16.97;;
11151;SDS011;5630;49.342;10.802;2023-03-01T00:59:58;24.23;;;17.30;;
11151;SDS011;5630;49.342;10.802;2023-03-01T01:02:24;19.30;;;16.02;;
11151;SDS011;5630;49.342;10.802;2023-03-01T01:04:50;26.47;;;18.07;;
11151;SDS011;5630;49.342;10.802;2023-03-01T01:07:16;25.93;;;17.20;;
11151;SDS011;5630;49.342;10.802;2023-03-01T01:09:42;22.80;;;16.58;;
11151;SDS011;5630;49.342;10.802;2023-03-01T01:12:08;25.70;;;16.77;;
11151;SDS011;5630;49.342;10.802;2023-03-01T01:14:34;24.37;;;17.00;;
11151;SDS011;5630;49.342;10.802;2023-03-01T01:17:00;23.52;;;16.83;;
11151;SDS011;5630;49.342;10.802;2023-03-01T01:19:25;23.10;;;16.37;;
11151;SDS011;5630;49.342;10.802;2023-03-01T01:21:51;26.97;;;17.10;;
11151;SDS011;5630;49.342;10.802;2023-03-01T01:24:17;23.95;;;17.98;;
11151;SDS011;5630;49.342;10.802;2023-03-01T01:26:44;23.23;;;17.45;;
11151;SDS011;5630;49.342;10.802;2023-03-01T01:29:10;22.43;;;17.40;;
11151;SDS011;5630;49.342;10.802;2023-03-01T01:31:36;23.10;;;17.40;;
11151;SDS011;5630;49.342;10.802;2023-03-01T01:34:04;22.95;;;17.38;;
11151;SDS011;5630;49.342;10.802;2023-03-01T01:36:32;20.95;;;17.02;;
11151;SDS011;5630;49.342;10.802;2023-03-01T01:38:58;21.60;;;16.95;;
11151;SDS011;5630;49.342;10.802;2023-03-01T01:41:25;25.77;;;18.02;;
11151;SDS011;5630;49.342;10.802;2023-03-01T01:46:44;21.48;;;17.48;;
11151;SDS011;5630;49.342;10.802;2023-03-01T01:49:34;23.33;;;17.15;;
11151;SDS011;5630;49.342;10.802;2023-03-01T01:55:08;22.80;;;17.52;;
11151;SDS011;5630;49.342;10.802;2023-03-01T01:57:40;25.85;;;18.65;;
11151;SDS011;5630;49.342;10.802;2023-03-01T02:00:11;24.98;;;17.70;;
11151;SDS011;5630;49.342;10.802;2023-03-01T02:02:42;23.83;;;18.00;;
11151;SDS011;5630;49.342;10.802;2023-03-01T02:05:19;26.17;;;19.13;;
11151;SDS011;5630;49.342;10.802;2023-03-01T02:07:58;25.00;;;17.50;;
11151;SDS011;5630;49.342;10.802;2023-03-01T02:10:24;23.10;;;17.30;;
11151;SDS011;5630;49.342;10.802;2023-03-01T02:12:51;22.05;;;17.20;;
11151;SDS011;5630;49.342;10.802;2023-03-01T02:15:17;24.95;;;17.90;;
11151;SDS011;5630;49.342;10.802;2023-03-01T02:17:42;21.50;;;17.50;;
11151;SDS011;5630;49.342;10.802;2023-03-01T02:20:31;24.13;;;17.27;;
11151;SDS011;5630;49.342;10.802;2023-03-01T02:23:05;23.50;;;18.45;;
11151;SDS011;5630;49.342;10.802;2023-03-01T02:28:23;22.25;;;17.83;;
11151;SDS011;5630;49.342;10.802;2023-03-01T02:30:59;23.33;;;18.02;;
11151;SDS011;5630;49.342;10.802;2023-03-01T02:33:45;23.08;;;17.38;;
11151;SDS011;5630;49.342;10.802;2023-03-01T02:36:14;26.20;;;18.77;;
11151;SDS011;5630;49.342;10.802;2023-03-01T02:38:43;24.73;;;17.33;;
11151;SDS011;5630;49.342;10.802;2023-03-01T02:41:10;25.95;;;18.02;;
11151;SDS011;5630;49.342;10.802;2023-03-01T02:43:39;25.65;;;18.63;;
11151;SDS011;5630;49.342;10.802;2023-03-01T02:46:07;27.53;;;18.67;;
11151;SDS011;5630;49.342;10.802;2023-03-01T02:48:42;24.33;;;18.23;;
11151;SDS011;5630;49.342;10.802;2023-03-01T02:53:58;24.70;;;18.95;;
11151;SDS011;5630;49.342;10.802;2023-03-01T02:56:35;23.75;;;17.80;;
11151;SDS011;5630;49.342;10.802;2023-03-01T02:59:01;24.97;;;18.60;;
11151;SDS011;5630;49.342;10.802;2023-03-01T03:01:28;26.48;;;18.45;;
11151;SDS011;5630;49.342;10.802;2023-03-01T03:04:02;25.38;;;18.98;;
11151;SDS011;5630;49.342;10.802;2023-03-01T03:06:32;24.70;;;19.02;;
11151;SDS011;5630;49.342;10.802;2023-03-01T03:08:58;26.08;;;18.85;;
11151;SDS011;5630;49.342;10.802;2023-03-01T03:11:24;23.53;;;17.93;;
11151;SDS011;5630;49.342;10.802;2023-03-01T03:13:49;25.80;;;18.97;;
11151;SDS011;5630;49.342;10.802;2023-03-01T03:16:16;24.02;;;18.15;;
11151;SDS011;5630;49.342;10.802;2023-03-01T03:18:41;26.03;;;19.10;;
11151;SDS011;5630;49.342;10.802;2023-03-01T03:21:08;25.40;;;18.47;;
11151;SDS011;5630;49.342;10.802;2023-03-01T03:23:37;27.52;;;19.85;;
11151;SDS011;5630;49.342;10.802;2023-03-01T03:26:03;26.35;;;20.10;;
11151;SDS011;5630;49.342;10.802;2023-03-01T03:28:30;26.55;;;19.90;;
11151;SDS011;5630;49.342;10.802;2023-03-01T03:30:57;26.55;;;20.63;;
11151;SDS011;5630;49.342;10.802;2023-03-01T03:33:23;27.65;;;19.95;;
11151;SDS011;5630;49.342;10.802;2023-03-01T03:35:49;25.92;;;19.70;;
11151;SDS011;5630;49.342;10.802;2023-03-01T03:38:16;24.90;;;19.90;;
11151;SDS011;5630;49.342;10.802;2023-03-01T03:40:51;29.55;;;21.65;;
11151;SDS011;5630;49.342;10.802;2023-03-01T03:43:27;24.77;;;20.23;;
11151;SDS011;5630;49.342;10.802;2023-03-01T03:45:53;29.55;;;21.63;;
11151;SDS011;5630;49.342;10.802;2023-03-01T03:48:19;26.90;;;21.27;;
11151;SDS011;5630;49.342;10.802;2023-03-01T03:50:49;27.20;;;20.37;;
11151;SDS011;5630;49.342;10.802;2023-03-01T03:53:16;29.17;;;21.85;;
11151;SDS011;5630;49.342;10.802;2023-03-01T03:55:42;26.00;;;20.90;;
11151;SDS011;5630;49.342;10.802;2023-03-01T03:58:09;30.85;;;22.33;;
11151;SDS011;5630;49.342;10.802;2023-03-01T04:00:39;28.35;;;21.58;;
11151;SDS011;5630;49.342;10.802;2023-03-01T04:03:06;30.48;;;22.02;;
11151;SDS011;5630;49.342;10.802;2023-03-01T04:05:32;28.23;;;21.17;;
11151;SDS011;5630;49.342;10.802;2023-03-01T04:07:58;28.15;;;21.00;;
11151;SDS011;5630;49.342;10.802;2023-03-01T04:10:32;28.65;;;21.38;;
11151;SDS011;5630;49.342;10.802;2023-03-01T04:12:59;25.38;;;21.13;;
11151;SDS011;5630;49.342;10.802;2023-03-01T04:15:25;28.93;;;21.60;;
11151;SDS011;5630;49.342;10.802;2023-03-01T04:17:52;28.90;;;21.00;;
11151;SDS011;5630;49.342;10.802;2023-03-01T04:20:20;29.02;;;21.20;;
11151;SDS011;5630;49.342;10.802;2023-03-01T04:22:49;28.08;;;21.75;;
11151;SDS011;5630;49.342;10.802;2023-03-01T04:25:41;28.17;;;21.05;;
11151;SDS011;5630;49.342;10.802;2023-03-01T04:28:10;28.63;;;21.17;;
11151;SDS011;5630;49.342;10.802;2023-03-01T04:30:36;25.48;;;20.05;;
11151;SDS011;5630;49.342;10.802;2023-03-01T04:33:03;25.48;;;20.40;;
11151;SDS011;5630;49.342;10.802;2023-03-01T04:35:34;29.63;;;21.73;;
11151;SDS011;5630;49.342;10.802;2023-03-01T04:38:00;31.95;;;20.95;;
11151;SDS011;5630;49.342;10.802;2023-03-01T04:40:25;27.53;;;21.37;;
11151;SDS011;5630;49.342;10.802;2023-03-01T04:42:51;25.40;;;20.60;;
11151;SDS011;5630;49.342;10.802;2023-03-01T04:45:17;27.33;;;20.83;;
11151;SDS011;5630;49.342;10.802;2023-03-01T04:47:43;25.53;;;19.53;;
11151;SDS011;5630;49.342;10.802;2023-03-01T04:50:12;25.45;;;19.98;;
11151;SDS011;5630;49.342;10.802;2023-03-01T04:52:39;28.48;;;19.73;;
11151;SDS011;5630;49.342;10.802;2023-03-01T04:55:05;27.87;;;19.87;;
11151;SDS011;5630;49.342;10.802;2023-03-01T04:57:31;29.55;;;20.15;;
11151;SDS011;5630;49.342;10.802;2023-03-01T04:59:57;28.83;;;20.80;;
11151;SDS011;5630;49.342;10.802;2023-03-01T05:02:23;29.87;;;20.47;;
11151;SDS011;5630;49.342;10.802;2023-03-01T05:04:49;27.63;;;20.57;;
11151;SDS011;5630;49.342;10.802;2023-03-01T05:07:14;30.00;;;19.97;;
11151;SDS011;5630;49.342;10.802;2023-03-01T05:09:47;25.63;;;19.05;;
11151;SDS011;5630;49.342;10.802;2023-03-01T05:12:14;26.80;;;19.90;;
11151;SDS011;5630;49.342;10.802;2023-03-01T05:14:40;23.75;;;19.33;;
11151;SDS011;5630;49.342;10.802;2023-03-01T05:17:06;25.50;;;20.15;;
11151;SDS011;5630;49.342;10.802;2023-03-01T05:19:32;26.70;;;19.30;;
11151;SDS011;5630;49.342;10.802;2023-03-01T05:21:58;26.57;;;20.23;;
11151;SDS011;5630;49.342;10.802;2023-03-01T05:24:27;25.45;;;19.35;;
11151;SDS011;5630;49.342;10.802;2023-03-01T05:26:53;29.27;;;21.10;;
11151;SDS011;5630;49.342;10.802;2023-03-01T05:29:19;24.00;;;19.33;;
11151;SDS011;5630;49.342;10.802;2023-03-01T05:31:51;24.58;;;19.50;;
11151;SDS011;5630;49.342;10.802;2023-03-01T05:34:27;24.90;;;19.35;;
11151;SDS011;5630;49.342;10.802;2023-03-01T05:36:54;24.80;;;18.90;;
11151;SDS011;5630;49.342;10.802;2023-03-01T05:39:21;26.77;;;18.70;;
11151;SDS011;5630;49.342;10.802;2023-03-01T05:41:48;25.63;;;20.10;;
11151;SDS011;5630;49.342;10.802;2023-03-01T05:44:17;26.23;;;19.52;;
11151;SDS011;5630;49.342;10.802;2023-03-01T05:46:42;27.60;;;20.23;;
11151;SDS011;5630;49.342;10.802;2023-03-01T05:49:08;25.80;;;19.87;;
11151;SDS011;5630;49.342;10.802;2023-03-01T05:51:33;27.10;;;20.70;;
11151;SDS011;5630;49.342;10.802;2023-03-01T05:53:59;26.57;;;20.27;;
11151;SDS011;5630;49.342;10.802;2023-03-01T05:56:25;27.83;;;19.73;;
11151;SDS011;5630;49.342;10.802;2023-03-01T05:58:50;30.90;;;19.83;;
11151;SDS011;5630;49.342;10.802;2023-03-01T06:01:16;27.53;;;20.63;;
11151;SDS011;5630;49.342;10.802;2023-03-01T06:03:41;27.83;;;20.37;;
11151;SDS011;5630;49.342;10.802;2023-03-01T06:06:07;25.60;;;19.10;;
11151;SDS011;5630;49.342;10.802;2023-03-01T06:08:33;27.17;;;20.17;;
11151;SDS011;5630;49.342;10.802;2023-03-01T06:10:58;29.13;;;20.50;;
11151;SDS011;5630;49.342;10.802;2023-03-01T06:13:24;28.73;;;21.07;;
11151;SDS011;5630;49.342;10.802;2023-03-01T06:15:49;25.30;;;19.00;;
11151;SDS011;5630;49.342;10.802;2023-03-01T06:18:15;26.13;;;19.47;;
11151;SDS011;5630;49.342;10.802;2023-03-01T06:20:41;27.87;;;20.47;;
11151;SDS011;5630;49.342;10.802;2023-03-01T06:23:06;30.63;;;20.47;;
11151;SDS011;5630;49.342;10.802;2023-03-01T06:25:32;26.73;;;20.30;;
11151;SDS011;5630;49.342;10.802;2023-03-01T06:27:58;31.20;;;21.63;;
11151;SDS011;5630;49.342;10.802;2023-03-01T06:30:24;26.37;;;21.03;;
11151;SDS011;5630;49.342;10.802;2023-03-01T06:32:51;26.27;;;20.52;;
11151;SDS011;5630;49.342;10.802;2023-03-01T06:35:17;26.57;;;20.77;;
11151;SDS011;5630;49.342;10.802;2023-03-01T06:37:44;19.88;;;14.30;;
11151;SDS011;5630;49.342;10.802;2023-03-01T06:40:10;22.70;;;16.65;;
11151;SDS011;5630;49.342;10.802;2023-03-01T06:42:39;36.47;;;27.60;;
11151;SDS011;5630;49.342;10.802;2023-03-01T06:45:06;34.28;;;25.35;;
11151;SDS011;5630;49.342;10.802;2023-03-01T06:47:32;30.58;;;22.25;;
11151;SDS011;5630;49.342;10.802;2023-03-01T06:49:59;31.63;;;20.88;;
11151;SDS011;5630;49.342;10.802;2023-03-01T06:52:25;33.47;;;21.27;;
11151;SDS011;5630;49.342;10.802;2023-03-01T06:54:51;28.40;;;18.80;;
11151;SDS011;5630;49.342;10.802;2023-03-01T06:57:17;26.40;;;19.47;;
11151;SDS011;5630;49.342;10.802;2023-03-01T06:59:43;31.10;;;20.67;;
11151;SDS011;5630;49.342;10.802;2023-03-01T07:02:11;24.57;;;18.87;;
11151;SDS011;5630;49.342;10.802;2023-03-01T07:04:38;26.58;;;19.80;;
11151;SDS011;5630;49.342;10.802;2023-03-01T07:07:04;26.73;;;19.67;;
11151;SDS011;5630;49.342;10.802;2023-03-01T07:09:30;26.92;;;20.27;;
11151;SDS011;5630;49.342;10.802;2023-03-01T07:11:56;24.60;;;18.70;;
11151;SDS011;5630;49.342;10.802;2023-03-01T07:14:21;27.40;;;18.48;;
11151;SDS011;5630;49.342;10.802;2023-03-01T07:16:49;29.80;;;20.30;;
11151;SDS011;5630;49.342;10.802;2023-03-01T07:19:15;27.40;;;20.33;;
11151;SDS011;5630;49.342;10.802;2023-03-01T07:21:40;29.33;;;20.13;;
11151;SDS011;5630;49.342;10.802;2023-03-01T07:24:06;27.20;;;19.60;;
11151;SDS011;5630;49.342;10.802;2023-03-01T07:26:32;28.38;;;20.45;;
11151;SDS011;5630;49.342;10.802;2023-03-01T07:29:01;29.93;;;21.27;;
11151;SDS011;5630;49.342;10.802;2023-03-01T07:31:33;29.23;;;19.27;;
11151;SDS011;5630;49.342;10.802;2023-03-01T07:34:02;25.50;;;19.80;;
11151;SDS011;5630;49.342;10.802;2023-03-01T07:36:28;28.77;;;20.63;;
11151;SDS011;5630;49.342;10.802;2023-03-01T07:38:53;27.70;;;21.07;;
11151;SDS011;5630;49.342;10.802;2023-03-01T07:41:20;29.00;;;21.45;;
11151;SDS011;5630;49.342;10.802;2023-03-01T07:43:46;26.80;;;20.77;;
11151;SDS011;5630;49.342;10.802;2023-03-01T07:46:12;26.33;;;19.70;;
11151;SDS011;5630;49.342;10.802;2023-03-01T07:48:38;29.73;;;21.33;;
11151;SDS011;5630;49.342;10.802;2023-03-01T07:51:04;27.30;;;20.63;;
11151;SDS011;5630;49.342;10.802;2023-03-01T07:53:31;31.95;;;21.17;;
11151;SDS011;5630;49.342;10.802;2023-03-01T07:56:03;32.33;;;22.45;;
11151;SDS011;5630;49.342;10.802;2023-03-01T07:58:29;32.00;;;21.73;;
11151;SDS011;5630;49.342;10.802;2023-03-01T08:00:55;29.97;;;21.67;;
11151;SDS011;5630;49.342;10.802;2023-03-01T08:03:21;32.00;;;21.00;;
11151;SDS011;5630;49.342;10.802;2023-03-01T08:05:46;30.83;;;22.13;;
11151;SDS011;5630;49.342;10.802;2023-03-01T08:08:12;31.73;;;22.47;;
11151;SDS011;5630;49.342;10.802;2023-03-01T08:10:37;30.47;;;21.67;;
11151;SDS011;5630;49.342;10.802;2023-03-01T08:13:03;27.87;;;21.33;;
11151;SDS011;5630;49.342;10.802;2023-03-01T08:15:28;33.53;;;21.73;;
11151;SDS011;5630;49.342;10.802;2023-03-01T08:17:54;34.20;;;21.30;;
11151;SDS011;5630;49.342;10.802;2023-03-01T08:20:19;31.63;;;20.87;;
11151;SDS011;5630;49.342;10.802;2023-03-01T08:22:45;34.40;;;21.58;;
11151;SDS011;5630;49.342;10.802;2023-03-01T08:25:11;30.50;;;21.70;;
11151;SDS011;5630;49.342;10.802;2023-03-01T08:27:36;30.57;;;21.23;;
11151;SDS011;5630;49.342;10.802;2023-03-01T08:30:02;27.83;;;21.07;;
11151;SDS011;5630;49.342;10.802;2023-03-01T08:32:28;32.00;;;21.37;;
11151;SDS011;5630;49.342;10.802;2023-03-01T08:34:53;35.60;;;21.20;;
11151;SDS011;5630;49.342;10.802;2023-03-01T08:37:19;32.10;;;20.77;;
11151;SDS011;5630;49.342;10.802;2023-03-01T08:39:45;33.47;;;22.23;;
11151;SDS011;5630;49.342;10.802;2023-03-01T08:42:11;31.50;;;21.48;;
11151;SDS011;5630;49.342;10.802;2023-03-01T08:44:36;30.80;;;20.87;;
11151;SDS011;5630;49.342;10.802;2023-03-01T08:47:02;27.47;;;20.60;;
11151;SDS011;5630;49.342;10.802;2023-03-01T08:49:29;33.47;;;22.13;;
11151;SDS011;5630;49.342;10.802;2023-03-01T08:51:54;35.27;;;22.13;;
11151;SDS011;5630;49.342;10.802;2023-03-01T08:54:20;29.47;;;20.43;;
11151;SDS011;5630;49.342;10.802;2023-03-01T08:56:47;37.35;;;21.92;;
11151;SDS011;5630;49.342;10.802;2023-03-01T08:59:16;30.42;;;21.73;;
11151;SDS011;5630;49.342;10.802;2023-03-01T09:01:42;33.53;;;21.92;;
11151;SDS011;5630;49.342;10.802;2023-03-01T09:04:08;30.40;;;21.03;;
11151;SDS011;5630;49.342;10.802;2023-03-01T09:06:35;30.77;;;21.10;;
11151;SDS011;5630;49.342;10.802;2023-03-01T09:09:02;32.78;;;21.75;;
11151;SDS011;5630;49.342;10.802;2023-03-01T09:11:29;27.63;;;20.52;;
11151;SDS011;5630;49.342;10.802;2023-03-01T09:13:54;29.83;;;20.80;;
11151;SDS011;5630;49.342;10.802;2023-03-01T09:16:21;27.53;;;19.20;;
11151;SDS011;5630;49.342;10.802;2023-03-01T09:18:51;32.60;;;22.07;;
11151;SDS011;5630;49.342;10.802;2023-03-01T09:21:18;30.67;;;21.17;;
11151;SDS011;5630;49.342;10.802;2023-03-01T09:23:46;30.53;;;21.17;;
11151;SDS011;5630;49.342;10.802;2023-03-01T09:26:19;29.73;;;21.42;;
11151;SDS011;5630;49.342;10.802;2023-03-01T09:28:47;30.47;;;21.00;;
11151;SDS011;5630;49.342;10.802;2023-03-01T09:31:19;29.93;;;20.07;;
11151;SDS011;5630;49.342;10.802;2023-03-01T09:33:46;33.37;;;21.33;;
11151;SDS011;5630;49.342;10.802;2023-03-01T09:36:17;26.73;;;20.83;;
11151;SDS011;5630;49.342;10.802;2023-03-01T09:38:45;29.87;;;21.13;;
11151;SDS011;5630;49.342;10.802;2023-03-01T09:43:53;27.70;;;20.27;;
11151;SDS011;5630;49.342;10.802;2023-03-01T09:46:35;29.50;;;20.03;;
11151;SDS011;5630;49.342;10.802;2023-03-01T09:49:09;28.13;;;20.47;;
11151;SDS011;5630;49.342;10.802;2023-03-01T09:52:06;29.57;;;20.73;;
11151;SDS011;5630;49.342;10.802;2023-03-01T09:54:49;26.60;;;20.77;;
11151;SDS011;5630;49.342;10.802;2023-03-01T10:02:54;28.67;;;20.40;;
11151;SDS011;5630;49.342;10.802;2023-03-01T10:10:35;26.17;;;20.27;;
11151;SDS011;5630;49.342;10.802;2023-03-01T10:13:04;28.70;;;21.47;;
11151;SDS011;5630;49.342;10.802;2023-03-01T10:15:45;26.77;;;20.43;;
11151;SDS011;5630;49.342;10.802;2023-03-01T10:18:20;24.83;;;18.33;;
11151;SDS011;5630;49.342;10.802;2023-03-01T10:20:53;30.93;;;20.77;;
11151;SDS011;5630;49.342;10.802;2023-03-01T10:23:23;27.47;;;19.33;;
11151;SDS011;5630;49.342;10.802;2023-03-01T10:25:57;24.43;;;19.47;;
11151;SDS011;5630;49.342;10.802;2023-03-01T10:28:44;27.07;;;19.50;;
11151;SDS011;5630;49.342;10.802;2023-03-01T10:31:18;29.07;;;20.70;;
11151;SDS011;5630;49.342;10.802;2023-03-01T10:33:48;24.23;;;19.33;;
11151;SDS011;5630;49.342;10.802;2023-03-01T10:36:18;25.50;;;18.63;;
11151;SDS011;5630;49.342;10.802;2023-03-01T10:38:56;26.50;;;19.90;;
11151;SDS011;5630;49.342;10.802;2023-03-01T10:41:23;26.50;;;19.70;;
11151;SDS011;5630;49.342;10.802;2023-03-01T10:43:50;28.77;;;19.97;;
11151;SDS011;5630;49.342;10.802;2023-03-01T10:46:23;26.43;;;18.47;;
11151;SDS011;5630;49.342;10.802;2023-03-01T10:49:05;24.60;;;18.80;;
11151;SDS011;5630;49.342;10.802;2023-03-01T10:51:45;15.80;;;11.07;;
11151;SDS011;5630;49.342;10.802;2023-03-01T10:54:25;13.67;;;10.23;;
11151;SDS011;5630;49.342;10.802;2023-03-01T10:56:57;24.13;;;15.50;;
11151;SDS011;5630;49.342;10.802;2023-03-01T10:59:37;22.20;;;17.40;;
11151;SDS011;5630;49.342;10.802;2023-03-01T11:02:23;25.63;;;18.07;;
11151;SDS011;5630;49.342;10.802;2023-03-01T11:05:13;21.77;;;17.73;;
11151;SDS011;5630;49.342;10.802;2023-03-01T11:07:47;26.10;;;18.47;;
11151;SDS011;5630;49.342;10.802;2023-03-01T11:10:22;29.57;;;17.80;;
11151;SDS011;5630;49.342;10.802;2023-03-01T11:12:52;20.43;;;16.50;;
11151;SDS011;5630;49.342;10.802;2023-03-01T11:15:26;22.10;;;17.90;;
11151;SDS011;5630;49.342;10.802;2023-03-01T11:17:53;19.63;;;16.10;;
11151;SDS011;5630;49.342;10.802;2023-03-01T11:22:52;26.27;;;17.97;;
11151;SDS011;5630;49.342;10.802;2023-03-01T11:25:20;22.37;;;18.37;;
11151;SDS011;5630;49.342;10.802;2023-03-01T11:27:52;24.63;;;18.57;;
11151;SDS011;5630;49.342;10.802;2023-03-01T11:30:34;26.47;;;17.87;;
11151;SDS011;5630;49.342;10.802;2023-03-01T11:33:17;28.47;;;17.17;;
11151;SDS011;5630;49.342;10.802;2023-03-01T11:39:51;22.53;;;16.80;;
11151;SDS011;5630;49.342;10.802;2023-03-01T11:42:12;22.73;;;16.93;;
11151;SDS011;5630;49.342;10.802;2023-03-01T11:44:50;21.90;;;16.90;;
11151;SDS011;5630;49.342;10.802;2023-03-01T11:58:15;23.30;;;17.27;;
11151;SDS011;5630;49.342;10.802;2023-03-01T12:01:20;25.77;;;17.63;;
11151;SDS011;5630;49.342;10.802;2023-03-01T12:04:18;23.80;;;17.07;;
11151;SDS011;5630;49.342;10.802;2023-03-01T12:07:18;24.23;;;16.93;;
11151;SDS011;5630;49.342;10.802;2023-03-01T12:18:40;23.13;;;14.80;;
11151;SDS011;5630;49.342;10.802;2023-03-01T12:32:44;20.00;;;13.27;;
11151;SDS011;5630;49.342;10.802;2023-03-01T12:39:06;14.67;;;11.60;;
11151;SDS011;5630;49.342;10.802;2023-03-01T12:46:49;19.43;;;12.80;;
11151;SDS011;5630;49.342;10.802;2023-03-01T12:49:46;17.20;;;12.50;;
11151;SDS011;5630;49.342;10.802;2023-03-01T12:52:20;16.63;;;12.73;;
11151;SDS011;5630;49.342;10.802;2023-03-01T12:54:56;18.87;;;14.50;;
11151;SDS011;5630;49.342;10.802;2023-03-01T12:59:59;15.63;;;12.20;;
11151;SDS011;5630;49.342;10.802;2023-03-01T13:02:41;14.20;;;11.57;;
11151;SDS011;5630;49.342;10.802;2023-03-01T13:05:29;18.83;;;11.67;;
11151;SDS011;5630;49.342;10.802;2023-03-01T13:08:23;18.43;;;12.87;;
11151;SDS011;5630;49.342;10.802;2023-03-01T13:10:58;15.90;;;12.57;;
11151;SDS011;5630;49.342;10.802;2023-03-01T13:13:27;17.57;;;13.23;;
11151;SDS011;5630;49.342;10.802;2023-03-01T13:15:54;17.13;;;14.23;;
11151;SDS011;5630;49.342;10.802;2023-03-01T13:20:51;14.57;;;11.60;;
11151;SDS011;5630;49.342;10.802;2023-03-01T13:28:36;15.00;;;10.70;;
11151;SDS011;5630;49.342;10.802;2023-03-01T13:31:03;16.70;;;12.27;;
11151;SDS011;5630;49.342;10.802;2023-03-01T13:35:56;16.13;;;13.27;;
11151;SDS011;5630;49.342;10.802;2023-03-01T13:44:28;16.50;;;13.80;;
11151;SDS011;5630;49.342;10.802;2023-03-01T13:49:48;21.17;;;14.20;;
11151;SDS011;5630;49.342;10.802;2023-03-01T13:54:58;12.63;;;10.67;;
11151;SDS011;5630;49.342;10.802;2023-03-01T13:57:28;15.73;;;13.30;;
11151;SDS011;5630;49.342;10.802;2023-03-01T13:59:59;24.53;;;13.60;;
11151;SDS011;5630;49.342;10.802;2023-03-01T14:02:24;16.70;;;9.10;;
11151;SDS011;5630;49.342;10.802;2023-03-01T14:04:56;15.60;;;11.93;;
11151;SDS011;5630;49.342;10.802;2023-03-01T14:07:23;16.17;;;11.30;;
11151;SDS011;5630;49.342;10.802;2023-03-01T14:09:54;17.00;;;11.93;;
11151;SDS011;5630;49.342;10.802;2023-03-01T14:15:41;18.77;;;12.90;;
11151;SDS011;5630;49.342;10.802;2023-03-01T14:18:12;21.17;;;13.97;;
11151;SDS011;5630;49.342;10.802;2023-03-01T14:20:44;16.47;;;12.80;;
11151;SDS011;5630;49.342;10.802;2023-03-01T14:23:17;16.80;;;13.17;;
11151;SDS011;5630;49.342;10.802;2023-03-01T14:25:48;18.50;;;14.40;;
11151;SDS011;5630;49.342;10.802;2023-03-01T14:28:26;19.53;;;13.80;;
11151;SDS011;5630;49.342;10.802;2023-03-01T14:30:54;17.83;;;13.53;;
11151;SDS011;5630;49.342;10.802;2023-03-01T14:33:25;17.10;;;12.53;;
11151;SDS011;5630;49.342;10.802;2023-03-01T14:36:05;16.07;;;12.90;;
11151;SDS011;5630;49.342;10.802;2023-03-01T14:38:32;19.80;;;13.87;;
11151;SDS011;5630;49.342;10.802;2023-03-01T14:41:01;18.00;;;13.40;;
11151;SDS011;5630;49.342;10.802;2023-03-01T14:43:30;16.57;;;12.87;;
11151;SDS011;5630;49.342;10.802;2023-03-01T14:45:56;18.07;;;12.60;;
11151;SDS011;5630;49.342;10.802;2023-03-01T14:48:22;17.17;;;13.90;;
11151;SDS011;5630;49.342;10.802;2023-03-01T14:50:48;19.03;;;13.17;;
11151;SDS011;5630;49.342;10.802;2023-03-01T14:53:22;19.17;;;13.77;;
11151;SDS011;5630;49.342;10.802;2023-03-01T14:55:54;18.83;;;14.03;;
11151;SDS011;5630;49.342;10.802;2023-03-01T14:58:23;14.93;;;12.37;;
11151;SDS011;5630;49.342;10.802;2023-03-01T15:00:50;14.87;;;12.03;;
11151;SDS011;5630;49.342;10.802;2023-03-01T15:03:35;17.40;;;12.57;;
11151;SDS011;5630;49.342;10.802;2023-03-01T15:06:03;17.77;;;12.70;;
11151;SDS011;5630;49.342;10.802;2023-03-01T15:08:30;19.33;;;13.47;;
11151;SDS011;5630;49.342;10.802;2023-03-01T15:11:04;23.90;;;13.97;;
11151;SDS011;5630;49.342;10.802;2023-03-01T15:13:43;23.27;;;13.90;;
11151;SDS011;5630;49.342;10.802;2023-03-01T15:18:57;19.00;;;13.87;;
11151;SDS011;5630;49.342;10.802;2023-03-01T15:21:26;17.33;;;13.57;;
11151;SDS011;5630;49.342;10.802;2023-03-01T15:26:45;20.17;;;15.07;;
11151;SDS011;5630;49.342;10.802;2023-03-01T15:29:21;16.73;;;14.17;;
11151;SDS011;5630;49.342;10.802;2023-03-01T15:32:01;17.40;;;13.50;;
11151;SDS011;5630;49.342;10.802;2023-03-01T15:34:48;20.40;;;14.50;;
11151;SDS011;5630;49.342;10.802;2023-03-01T15:40:23;18.60;;;14.37;;
11151;SDS011;5630;49.342;10.802;2023-03-01T15:43:05;17.63;;;13.40;;
11151;SDS011;5630;49.342;10.802;2023-03-01T15:45:32;19.93;;;12.93;;
11151;SDS011;5630;49.342;10.802;2023-03-01T15:48:04;21.23;;;14.67;;
11151;SDS011;5630;49.342;10.802;2023-03-01T15:50:40;21.57;;;15.37;;
11151;SDS011;5630;49.342;10.802;2023-03-01T15:53:10;20.27;;;14.10;;
11151;SDS011;5630;49.342;10.802;2023-03-01T15:55:39;20.53;;;14.67;;
11151;SDS011;5630;49.342;10.802;2023-03-01T16:00:41;19.47;;;14.13;;
11151;SDS011;5630;49.342;10.802;2023-03-01T16:03:08;18.47;;;13.83;;
11151;SDS011;5630;49.342;10.802;2023-03-01T16:05:37;19.97;;;14.27;;
11151;SDS011;5630;49.342;10.802;2023-03-01T16:08:03;18.30;;;13.60;;
11151;SDS011;5630;49.342;10.802;2023-03-01T16:10:31;22.20;;;13.70;;
11151;SDS011;5630;49.342;10.802;2023-03-01T16:12:57;16.37;;;13.00;;
11151;SDS011;5630;49.342;10.802;2023-03-01T16:15:24;22.67;;;14.27;;
11151;SDS011;5630;49.342;10.802;2023-03-01T16:17:52;16.53;;;13.30;;
11151;SDS011;5630;49.342;10.802;2023-03-01T16:20:18;20.87;;;13.97;;
11151;SDS011;5630;49.342;10.802;2023-03-01T16:22:44;23.67;;;14.40;;
11151;SDS011;5630;49.342;10.802;2023-03-01T16:25:11;19.83;;;15.03;;